Time;durP1;ratioP1;P1;durP2;ratioP2;P2;SDS_P1;SDS_P2;PMS_P1;PMS_P2;Temp;Humidity;BMP_temperature;BMP_pressure;BME280_temperature;BME280_humidity;BME280_pressure;Samples;Min_cycle;Max_cycle;Signal;HPM_P1;HPM_P2
2022/01/04 00:02:41;;;;;;;6.53;2.30;;;;;;;8.07;100.00;100070.41;5588803;31;33890;-69
2022/01/04 00:05:44;;;;;;;6.32;2.62;;;;;;;8.02;100.00;100066.59;5589738;31;34007;-69
2022/01/04 00:08:47;;;;;;;10.38;2.80;;;;;;;8.03;100.00;100062.97;5588550;31;34165;-69
2022/01/04 00:14:53;;;;;;;9.00;3.00;;;;;;;7.99;100.00;100074.84;5589442;31;34385;-69
2022/01/04 00:17:56;;;;;;;8.18;3.22;;;;;;;7.95;100.00;100081.41;5589409;31;33967;-69
2022/01/04 00:20:58;;;;;;;6.12;3.78;;;;;;;7.92;100.00;100087.84;5589282;31;34645;-69
2022/01/04 00:24:02;;;;;;;11.60;4.10;;;;;;;7.85;100.00;100085.00;5588572;31;34264;-69
2022/01/04 00:27:05;;;;;;;9.80;4.18;;;;;;;7.85;100.00;100076.25;5589193;31;34699;-69
2022/01/04 00:30:12;;;;;;;9.52;4.28;;;;;;;7.71;100.00;100080.31;5589218;31;34254;-69
2022/01/04 00:33:17;;;;;;;9.85;4.78;;;;;;;7.69;100.00;100079.66;5588475;31;34027;-69
2022/01/04 00:36:20;;;;;;;13.70;4.60;;;;;;;7.63;100.00;100077.63;5589011;31;33904;-69
2022/01/04 00:39:22;;;;;;;13.65;5.12;;;;;;;7.58;100.00;100074.63;5589050;31;34349;-69
2022/01/04 00:42:25;;;;;;;8.82;4.97;;;;;;;7.54;100.00;100067.19;5589193;31;33945;-69
2022/01/04 00:45:31;;;;;;;10.77;4.97;;;;;;;7.57;100.00;100066.84;5589254;31;33944;-69
2022/01/04 00:51:56;;;;;;;11.00;5.55;;;;;;;7.62;100.00;100051.38;5588922;31;34210;-69
2022/01/04 00:54:59;;;;;;;12.82;6.03;;;;;;;7.65;100.00;100051.88;5589059;31;34324;-69
2022/01/04 00:58:03;;;;;;;14.15;7.45;;;;;;;7.56;100.00;100060.75;5588828;31;34357;-69
2022/01/04 01:01:09;;;;;;;15.25;7.80;;;;;;;7.53;100.00;100055.78;5588627;31;34283;-69
2022/01/04 01:04:13;;;;;;;18.37;8.85;;;;;;;7.48;100.00;100049.31;5588622;31;34730;-69
2022/01/04 01:07:16;;;;;;;16.50;9.52;;;;;;;7.45;100.00;100062.84;5588602;31;34084;-69
2022/01/04 01:13:24;;;;;;;18.40;10.25;;;;;;;7.32;100.00;100074.63;5588541;31;34051;-69
2022/01/04 01:16:27;;;;;;;16.80;9.80;;;;;;;7.26;100.00;100064.66;5587765;31;33933;-69
2022/01/04 01:19:30;;;;;;;20.20;10.88;;;;;;;7.20;100.00;100035.47;5588432;31;33982;-69
2022/01/04 01:22:33;;;;;;;18.37;10.30;;;;;;;7.20;100.00;100053.91;5590078;31;34690;-69
2022/01/04 01:25:36;;;;;;;17.40;9.90;;;;;;;7.19;100.00;100031.16;5590954;31;34094;-69
2022/01/04 01:28:39;;;;;;;18.45;9.82;;;;;;;7.19;100.00;100025.88;5590903;31;33898;-69
2022/01/04 01:31:42;;;;;;;17.42;9.13;;;;;;;7.25;100.00;100025.28;5590817;31;34751;-69
2022/01/04 01:34:44;;;;;;;18.87;9.20;;;;;;;7.26;100.00;100024.28;5590165;31;33930;-69
2022/01/04 01:37:47;;;;;;;16.77;8.68;;;;;;;7.24;100.00;100019.16;5590728;31;35244;-69
2022/01/04 01:40:52;;;;;;;18.73;10.35;;;;;;;7.29;100.00;100011.59;5590802;31;34246;-69
2022/01/04 01:43:55;;;;;;;19.17;9.68;;;;;;;7.25;100.00;100010.28;5590754;31;34011;-69
2022/01/04 01:46:59;;;;;;;16.87;9.57;;;;;;;7.24;100.00;100002.50;5590059;31;33992;-69
2022/01/04 01:50:03;;;;;;;18.37;9.57;;;;;;;7.27;100.00;99996.91;5591016;31;34157;-69
2022/01/04 01:53:06;;;;;;;21.48;10.38;;;;;;;7.36;100.00;99993.31;5590701;31;34689;-69
2022/01/04 01:56:09;;;;;;;18.58;10.82;;;;;;;7.28;100.00;99975.66;5590758;31;34598;-69
2022/01/04 01:59:14;;;;;;;18.48;11.07;;;;;;;7.18;100.00;99972.28;5590677;31;34000;-69
2022/01/04 02:02:17;;;;;;;18.98;10.80;;;;;;;7.20;100.00;99977.41;5589815;31;34456;-69
2022/01/04 02:05:21;;;;;;;18.73;10.95;;;;;;;7.05;100.00;99968.41;5590489;31;33971;-68
2022/01/04 02:08:23;;;;;;;17.73;10.10;;;;;;;6.99;100.00;99962.78;5589870;31;33947;-68
2022/01/04 02:11:30;;;;;;;18.00;10.88;;;;;;;7.00;100.00;99960.97;5590478;31;34016;-68
2022/01/04 02:14:32;;;;;;;21.17;11.45;;;;;;;6.94;100.00;99953.66;5590864;31;33993;-69
2022/01/04 02:17:35;;;;;;;21.90;11.82;;;;;;;6.87;100.00;99950.00;5590376;31;34646;-69
2022/01/04 02:20:38;;;;;;;22.17;12.07;;;;;;;6.82;100.00;99944.38;5590807;31;34550;-68
2022/01/04 02:23:41;;;;;;;18.25;11.35;;;;;;;6.86;100.00;99925.44;5590479;31;35124;-68
2022/01/04 02:26:44;;;;;;;24.58;11.90;;;;;;;6.93;100.00;99921.19;5590294;31;33959;-68
2022/01/04 02:29:49;;;;;;;20.23;12.20;;;;;;;6.95;100.00;99915.78;5590356;31;33774;-68
2022/01/04 02:32:52;;;;;;;20.45;11.80;;;;;;;6.90;100.00;99910.97;5588711;31;34215;-69
2022/01/04 02:35:55;;;;;;;23.58;12.45;;;;;;;7.02;100.00;99916.78;5585679;31;139118;-69
2022/01/04 02:38:58;;;;;;;21.42;11.82;;;;;;;6.99;100.00;99903.94;5590389;31;34599;-69
2022/01/04 02:42:02;;;;;;;20.08;11.98;;;;;;;6.86;100.00;99914.91;5590208;31;33869;-69
2022/01/04 02:45:06;;;;;;;22.30;12.02;;;;;;;6.76;100.00;99913.34;5590236;31;34273;-69
2022/01/04 02:48:09;;;;;;;21.65;12.85;;;;;;;6.74;100.00;99921.41;5590233;31;33989;-69
2022/01/04 02:51:12;;;;;;;24.80;13.20;;;;;;;6.77;100.00;99929.03;5590240;31;34293;-69
2022/01/04 02:54:15;;;;;;;21.08;12.73;;;;;;;6.86;100.00;99924.63;5589419;31;33951;-69
2022/01/04 02:57:18;;;;;;;20.10;12.30;;;;;;;6.84;100.00;99916.84;5590277;31;34009;-69
2022/01/04 03:00:23;;;;;;;21.12;11.63;;;;;;;6.89;100.00;99917.22;5590085;31;34029;-69
2022/01/04 03:03:27;;;;;;;20.08;11.63;;;;;;;6.88;100.00;99912.09;5590230;31;35001;-69
2022/01/04 03:06:30;;;;;;;19.73;11.88;;;;;;;6.85;100.00;99915.06;5589923;31;34689;-69
2022/01/04 03:09:32;;;;;;;23.27;12.23;;;;;;;6.82;100.00;99895.13;5590086;31;33987;-69
2022/01/04 03:12:39;;;;;;;23.42;12.43;;;;;;;6.87;100.00;99900.72;5589861;31;34600;-69
2022/01/04 03:15:42;;;;;;;23.15;11.82;;;;;;;6.79;100.00;99894.56;5589191;31;34060;-69
2022/01/04 03:19:03;;;;;;;20.37;11.48;;;;;;;6.84;100.00;99887.84;5589973;31;34604;-69
2022/01/04 03:22:05;;;;;;;;;;;;;;;6.84;100.00;99879.13;5589497;31;34724;-69
2022/01/04 03:25:08;;;;;;;20.23;11.18;;;;;;;6.85;100.00;99875.50;5589969;31;34683;-69
2022/01/04 03:28:12;;;;;;;22.58;12.00;;;;;;;6.78;100.00;99861.28;5589968;31;34124;-69
2022/01/04 03:31:15;;;;;;;22.48;11.80;;;;;;;6.82;100.00;99850.28;5589899;31;34041;-68
2022/01/04 03:34:19;;;;;;;20.25;11.12;;;;;;;6.72;100.00;99854.00;5589712;31;34820;-69
2022/01/04 03:37:22;;;;;;;22.00;11.75;;;;;;;6.64;100.00;99836.31;5588791;31;33990;-69
2022/01/04 03:40:24;;;;;;;22.00;11.43;;;;;;;6.63;100.00;99841.78;5590015;31;34093;-69
2022/01/04 03:43:28;;;;;;;20.08;10.68;;;;;;;6.55;100.00;99832.00;5589060;31;34344;-69
2022/01/04 03:46:31;;;;;;;19.27;11.10;;;;;;;6.51;100.00;99826.22;5589813;31;34614;-69
2022/01/04 03:49:34;;;;;;;20.15;11.48;;;;;;;6.44;100.00;99827.81;5588993;31;34097;-69
2022/01/04 03:52:37;;;;;;;18.23;11.10;;;;;;;6.36;100.00;99819.84;5588868;31;34678;-69
2022/01/04 03:55:40;;;;;;;20.83;11.40;;;;;;;6.36;100.00;99829.56;5589617;31;34145;-69
2022/01/04 03:58:43;;;;;;;22.33;11.73;;;;;;;6.30;100.00;99828.38;5588821;31;33851;-69
2022/01/04 04:01:47;;;;;;;20.20;11.57;;;;;;;6.25;100.00;99827.16;5589674;31;35174;-69
2022/01/04 04:04:50;;;;;;;23.05;12.25;;;;;;;6.22;100.00;99816.94;5588634;31;34210;-69
2022/01/04 04:07:53;;;;;;;22.27;12.25;;;;;;;6.22;100.00;99822.22;5589495;31;34037;-69
2022/01/04 04:10:56;;;;;;;20.67;11.60;;;;;;;6.23;100.00;99808.91;5588775;31;34013;-69
2022/01/04 04:13:58;;;;;;;23.02;11.77;;;;;;;6.26;100.00;99815.66;5589393;31;34038;-69
2022/01/04 04:17:02;;;;;;;19.83;11.75;;;;;;;6.23;100.00;99822.06;5589534;31;34340;-69
2022/01/04 04:20:06;;;;;;;23.30;12.95;;;;;;;6.22;100.00;99809.87;5589655;31;34591;-69
2022/01/04 04:23:10;;;;;;;20.12;11.52;;;;;;;6.25;100.00;99811.37;5589252;31;34141;-69
2022/01/04 04:26:13;;;;;;;21.33;12.05;;;;;;;6.21;100.00;99813.47;5589069;31;33919;-70
2022/01/04 04:29:16;;;;;;;21.67;11.63;;;;;;;6.25;100.00;99806.94;5589535;31;34056;-69
2022/01/04 04:32:19;;;;;;;20.80;11.55;;;;;;;6.19;100.00;99804.09;5589170;31;33971;-69
2022/01/04 04:35:22;;;;;;;21.92;11.10;;;;;;;6.19;100.00;99797.03;5589402;31;34839;-69
2022/01/04 04:38:25;;;;;;;20.17;11.52;;;;;;;6.21;100.00;99810.03;5589060;31;35237;-69
2022/01/04 04:41:28;;;;;;;21.67;11.65;;;;;;;6.21;100.00;99799.47;5589200;31;34015;-70
2022/01/04 04:44:31;;;;;;;19.75;10.75;;;;;;;6.15;100.00;99800.12;5588254;31;34021;-70
2022/01/04 04:47:35;;;;;;;19.65;10.75;;;;;;;6.14;100.00;99796.66;5588967;31;34051;-70
2022/01/04 04:50:37;;;;;;;21.05;10.93;;;;;;;6.06;100.00;99796.56;5589243;31;34408;-70
2022/01/04 04:53:40;;;;;;;18.58;10.95;;;;;;;6.03;100.00;99804.78;5588862;31;34579;-70
2022/01/04 04:56:43;;;;;;;17.23;9.68;;;;;;;5.95;100.00;99799.47;5587993;31;34105;-69
2022/01/04 04:59:45;;;;;;;20.27;10.75;;;;;;;5.96;100.00;99790.56;5588632;31;34783;-69
2022/01/04 05:02:48;;;;;;;18.27;10.60;;;;;;;5.86;100.00;99777.47;5588979;31;34020;-69
2022/01/04 05:05:51;;;;;;;21.87;11.20;;;;;;;5.84;100.00;99775.97;5587762;31;35419;-70
2022/01/04 05:08:54;;;;;;;22.10;11.07;;;;;;;5.81;100.00;99778.94;5588668;31;33965;-70
2022/01/04 05:11:56;;;;;;;18.02;10.40;;;;;;;5.80;100.00;99778.09;5588996;31;34670;-70
2022/01/04 05:14:59;;;;;;;19.35;11.73;;;;;;;5.81;100.00;99769.19;5588488;31;33883;-69
2022/01/04 05:18:02;;;;;;;19.83;10.55;;;;;;;5.75;100.00;99761.09;5588443;31;34593;-70
2022/01/04 05:21:05;;;;;;;21.05;11.07;;;;;;;5.68;100.00;99760.88;5588314;31;33987;-70
2022/01/04 05:24:07;;;;;;;16.85;10.05;;;;;;;5.60;100.00;99763.44;5588293;31;33990;-69
2022/01/04 05:27:13;;;;;;;20.25;10.25;;;;;;;5.57;100.00;99761.94;5588403;31;33930;-69
2022/01/04 05:30:16;;;;;;;17.50;10.57;;;;;;;5.66;100.00;99766.28;5588006;31;34595;-69
2022/01/04 05:33:18;;;;;;;20.25;10.57;;;;;;;5.61;100.00;99755.41;5587451;31;33976;-71
2022/01/04 05:36:21;;;;;;;20.12;10.68;;;;;;;5.56;100.00;99760.28;5587905;31;34144;-71
2022/01/04 05:39:24;;;;;;;17.27;9.82;;;;;;;5.56;100.00;99757.66;5587131;31;34331;-71
2022/01/04 05:42:27;;;;;;;18.33;11.07;;;;;;;5.51;100.00;99757.28;5587070;31;34569;-71
2022/01/04 05:45:30;;;;;;;18.92;11.38;;;;;;;5.57;100.00;99748.78;5586940;31;34056;-70
2022/01/04 05:48:33;;;;;;;21.58;11.23;;;;;;;5.58;100.00;99742.53;5587014;31;34606;-70
2022/01/04 05:51:36;;;;;;;18.60;10.77;;;;;;;5.53;100.00;99747.41;5587746;31;34031;-70
2022/01/04 05:54:41;;;;;;;21.80;11.82;;;;;;;5.42;100.00;99734.50;5587990;31;33933;-70
2022/01/04 05:57:44;;;;;;;21.00;11.07;;;;;;;5.34;100.00;99733.59;5587915;31;34025;-70
2022/01/04 06:00:47;;;;;;;17.95;9.98;;;;;;;5.37;100.00;99721.00;5587409;31;34038;-70
2022/01/04 06:03:51;;;;;;;20.62;11.38;;;;;;;5.40;100.00;99718.03;5587410;31;34580;-70
2022/01/04 06:06:54;;;;;;;20.35;11.77;;;;;;;5.43;100.00;99709.84;5587624;31;33950;-69
2022/01/04 06:09:57;;;;;;;23.98;13.32;;;;;;;5.39;100.00;99712.94;5589561;31;33937;-69
2022/01/04 06:16:03;;;;;;;23.62;13.02;;;;;;;5.03;100.00;99717.38;5589665;31;33240;-69
2022/01/04 06:19:06;;;;;;;26.12;13.65;;;;;;;4.80;100.00;99723.00;5589909;31;34784;-72
2022/01/04 06:22:09;;;;;;;25.05;13.70;;;;;;;4.69;100.00;99727.66;5590228;31;34738;-70
2022/01/04 06:25:14;;;;;;;27.65;14.70;;;;;;;4.63;100.00;99729.06;5589885;31;34703;-69
2022/01/04 06:28:17;;;;;;;25.10;13.77;;;;;;;4.52;100.00;99736.28;5589914;31;35241;-70
2022/01/04 06:31:20;;;;;;;24.42;14.10;;;;;;;4.43;100.00;99724.88;5590145;31;34421;-70
2022/01/04 06:34:23;;;;;;;26.27;13.68;;;;;;;4.41;100.00;99720.72;5589347;31;34083;-70
2022/01/04 06:37:26;;;;;;;28.27;14.07;;;;;;;4.33;100.00;99718.81;5589654;31;34603;-70
2022/01/04 06:40:30;;;;;;;26.08;13.27;;;;;;;4.27;100.00;99712.34;5590466;31;34101;-70
2022/01/04 06:43:32;;;;;;;23.95;13.93;;;;;;;4.12;100.00;99697.19;5590058;31;34093;-70
2022/01/04 06:46:38;;;;;;;24.12;13.73;;;;;;;4.23;100.00;99692.59;5589851;31;34073;-70
2022/01/04 06:49:40;;;;;;;22.80;13.88;;;;;;;4.32;100.00;99689.09;5590230;31;34383;-70
2022/01/04 06:52:44;;;;;;;26.67;14.87;;;;;;;4.32;100.00;99685.66;5589883;31;34628;-70
2022/01/04 06:55:50;;;;;;;27.60;15.25;;;;;;;4.30;100.00;99677.09;5588926;31;34072;-70
2022/01/04 06:58:53;;;;;;;26.45;14.25;;;;;;;4.25;100.00;99677.53;5589132;31;33986;-70
2022/01/04 07:01:56;;;;;;;28.58;15.00;;;;;;;4.25;100.00;99669.66;5588734;31;34014;-70
2022/01/04 07:04:59;;;;;;;29.27;13.82;;;;;;;4.29;100.00;99673.66;5589816;31;34292;-70
2022/01/04 07:08:03;;;;;;;27.10;14.77;;;;;;;4.28;100.00;99668.53;5589755;31;34208;-70
2022/01/04 07:11:09;;;;;;;31.55;14.73;;;;;;;4.35;100.00;99664.38;5589284;31;34603;-71
2022/01/04 07:14:12;;;;;;;25.75;13.55;;;;;;;4.50;100.00;99673.41;5589697;31;33850;-71
2022/01/04 07:17:14;;;;;;;23.50;13.10;;;;;;;4.61;100.00;99701.28;5589594;31;34411;-71
2022/01/04 07:20:17;;;;;;;25.62;13.57;;;;;;;4.80;100.00;99714.31;5588353;31;34600;-71
2022/01/04 07:23:22;;;;;;;23.62;12.55;;;;;;;5.01;100.00;99709.63;5589579;31;33960;-71
2022/01/04 07:26:24;;;;;;;20.52;11.15;;;;;;;5.09;100.00;99709.69;5589256;31;34064;-71
2022/01/04 07:29:27;;;;;;;16.08;9.57;;;;;;;5.31;100.00;99697.09;5588742;31;34674;-70
2022/01/04 07:32:30;;;;;;;13.55;7.57;;;;;;;5.51;100.00;99702.03;5589847;31;33982;-71
2022/01/04 07:35:33;;;;;;;12.93;7.60;;;;;;;5.92;100.00;99687.38;5589473;31;34614;-72
2022/01/04 07:38:36;;;;;;;12.45;7.45;;;;;;;6.20;100.00;99698.56;5588949;31;35461;-71
2022/01/04 07:41:39;;;;;;;12.45;6.60;;;;;;;6.41;100.00;99690.28;5589474;31;34221;-71
2022/01/04 07:44:42;;;;;;;12.68;7.30;;;;;;;6.58;100.00;99689.37;5588717;31;33947;-71
2022/01/04 07:47:45;;;;;;;13.05;7.50;;;;;;;6.60;100.00;99684.78;5588522;31;33938;-71
2022/01/04 07:50:47;;;;;;;10.73;6.80;;;;;;;6.63;100.00;99670.47;5589370;31;34684;-71
2022/01/04 07:53:53;;;;;;;12.18;6.90;;;;;;;6.72;100.00;99670.31;5589645;31;33865;-71
2022/01/04 07:56:55;;;;;;;13.07;7.30;;;;;;;6.77;100.00;99668.03;5589357;31;34028;-70
2022/01/04 07:59:58;;;;;;;11.40;7.03;;;;;;;6.75;100.00;99650.72;5588686;31;34674;-70
2022/01/04 08:03:03;;;;;;;12.35;6.37;;;;;;;6.81;100.00;99637.72;5589574;31;33961;-70
2022/01/04 08:06:06;;;;;;;13.07;7.07;;;;;;;6.92;100.00;99641.88;5589192;31;34282;-70
2022/01/04 08:09:09;;;;;;;15.38;7.32;;;;;;;7.02;100.00;99639.88;5589069;31;34809;-70
2022/01/04 08:12:12;;;;;;;11.35;6.37;;;;;;;7.13;100.00;99636.94;5589177;31;34015;-70
2022/01/04 08:15:14;;;;;;;12.23;6.97;;;;;;;7.27;100.00;99628.37;5588274;31;34400;-70
2022/01/04 08:18:17;;;;;;;12.40;6.65;;;;;;;7.53;100.00;99606.25;5589115;31;35239;-70
2022/01/04 08:21:20;;;;;;;11.65;6.47;;;;;;;7.54;100.00;99608.75;5589196;31;33909;-71
2022/01/04 08:24:23;;;;;;;13.25;5.80;;;;;;;7.52;100.00;99601.97;5588959;31;34239;-70
2022/01/04 08:27:26;;;;;;;13.68;6.18;;;;;;;7.69;100.00;99600.97;5589206;31;34700;-71
2022/01/04 08:30:29;;;;;;;11.93;6.65;;;;;;;7.75;99.50;99593.16;5588046;31;34703;-70
2022/01/04 08:33:32;;;;;;;10.88;6.60;;;;;;;7.75;99.52;99589.69;5589157;31;34067;-70
2022/01/04 08:36:38;;;;;;;8.82;5.70;;;;;;;7.83;99.28;99585.25;5588940;31;34054;-69
2022/01/04 08:39:41;;;;;;;9.07;5.50;;;;;;;7.81;99.72;99591.69;5588910;31;35328;-70
2022/01/04 08:42:44;;;;;;;8.70;5.40;;;;;;;7.86;98.22;99584.91;5589063;31;34027;-70
2022/01/04 08:45:47;;;;;;;11.20;5.35;;;;;;;8.02;97.85;99589.31;5588849;31;34075;-72
2022/01/04 08:48:50;;;;;;;8.48;5.45;;;;;;;8.10;97.82;99599.00;5589079;31;34679;-70
2022/01/04 08:51:53;;;;;;;8.52;5.15;;;;;;;8.19;95.91;99605.91;5589026;31;33873;-71
2022/01/04 08:54:55;;;;;;;9.27;4.80;;;;;;;8.17;95.55;99577.03;5588888;31;34830;-69
2022/01/04 08:57:58;;;;;;;7.80;4.82;;;;;;;8.12;96.49;99578.53;5588546;31;34071;-70
2022/01/04 09:01:02;;;;;;;8.35;4.97;;;;;;;8.07;97.19;99579.06;5587853;31;33911;-71
2022/01/04 09:04:06;;;;;;;9.15;5.60;;;;;;;8.00;97.51;99582.53;5588590;31;34818;-70
2022/01/04 09:07:10;;;;;;;8.63;5.07;;;;;;;8.05;96.97;99564.34;5588535;31;34084;-70
2022/01/04 09:10:14;;;;;;;10.55;5.15;;;;;;;7.89;98.07;99562.59;5587639;31;34323;-71
2022/01/04 09:13:20;;;;;;;7.93;4.93;;;;;;;7.93;97.50;99560.47;5588511;31;34026;-70
2022/01/04 09:19:44;;;;;;;12.63;5.50;;;;;;;7.95;98.00;99550.53;5588405;31;34284;-71
2022/01/04 09:22:48;;;;;;;8.40;5.35;;;;;;;7.96;97.47;99557.47;5588268;31;34648;-71
2022/01/04 09:25:53;;;;;;;8.73;5.45;;;;;;;7.96;96.77;99570.66;5588202;31;34016;-70
2022/01/04 09:28:56;;;;;;;9.55;5.78;;;;;;;7.93;97.86;99569.22;5587224;31;34577;-70
2022/01/04 09:32:01;;;;;;;8.18;5.10;;;;;;;8.09;96.88;99544.53;5588228;31;34552;-71
2022/01/04 09:35:04;;;;;;;10.55;5.93;;;;;;;8.33;96.12;99535.72;5587990;31;33910;-71
2022/01/04 09:38:08;;;;;;;15.25;5.00;;;;;;;8.32;96.05;99534.06;5588458;31;34325;-70
2022/01/04 09:41:11;;;;;;;9.45;5.15;;;;;;;8.46;96.01;99535.97;5588883;31;34198;-71
2022/01/04 09:44:15;;;;;;;10.05;5.45;;;;;;;8.38;95.16;99522.78;5590827;31;34239;-71
2022/01/04 09:47:18;;;;;;;13.48;5.47;;;;;;;8.34;95.94;99511.72;5590525;31;33897;-71
2022/01/04 09:50:22;;;;;;;10.05;5.47;;;;;;;8.41;95.05;99515.34;5590676;31;33949;-71
2022/01/04 09:53:25;;;;;;;8.30;5.22;;;;;;;8.72;93.24;99507.34;5589827;31;34707;-71
2022/01/04 09:56:28;;;;;;;9.32;5.72;;;;;;;8.54;93.73;99496.25;5590594;31;34027;-71
2022/01/04 09:59:30;;;;;;;10.20;5.57;;;;;;;8.55;94.66;99484.69;5589617;31;34157;-71
2022/01/04 10:02:35;;;;;;;9.95;5.60;;;;;;;8.67;93.83;99460.28;5590546;31;33996;-72
2022/01/04 10:05:41;;;;;;;8.40;5.37;;;;;;;8.92;92.12;99455.59;5590530;31;34058;-71
2022/01/04 10:08:53;;;;;;;10.38;6.12;;;;;;;8.92;92.13;99447.66;5590400;31;33930;-70
2022/01/04 10:11:58;;;;;;;11.60;6.32;;;;;;;9.12;91.09;99446.16;5590294;31;34807;-72
2022/01/04 10:15:00;;;;;;;13.32;6.20;;;;;;;8.95;92.48;99438.56;5589895;31;34644;-70
2022/01/04 10:18:18;;;;;;;13.65;7.05;;;;;;;8.94;92.72;99423.69;5590391;31;34100;-71
2022/01/04 10:21:20;;;;;;;13.48;6.10;;;;;;;9.02;93.07;99424.41;5590132;31;34025;-71
2022/01/04 10:24:23;;;;;;;11.32;7.07;;;;;;;9.27;91.44;99432.94;5590290;31;34412;-70
2022/01/04 10:27:33;;;;;;;13.98;6.95;;;;;;;9.24;91.28;99451.00;5590238;31;34044;-70
2022/01/04 10:30:39;;;;;;;14.05;6.60;;;;;;;9.24;92.03;99453.66;5590371;31;34620;-70
2022/01/04 10:33:42;;;;;;;14.00;7.40;;;;;;;9.25;91.82;99432.28;5590611;31;34699;-70
2022/01/04 10:36:46;;;;;;;14.55;6.60;;;;;;;9.34;91.63;99438.31;5590031;31;34571;-71
2022/01/04 10:40:06;;;;;;;11.35;6.65;;;;;;;9.44;90.86;99426.44;5590212;31;34077;-71
2022/01/04 10:43:12;;;;;;;12.05;6.87;;;;;;;9.55;90.84;99417.19;5579583;31;34191;-69
2022/01/04 10:46:22;;;;;;;12.40;7.15;;;;;;;9.39;92.20;99393.59;5596198;31;34756;-69
2022/01/04 10:49:30;;;;;;;14.10;7.22;;;;;;;9.70;90.28;99403.94;5567028;31;34070;-70
2022/01/04 10:52:32;;;;;;;11.35;6.87;;;;;;;9.75;90.61;99399.72;5590077;31;34895;-72
2022/01/04 10:55:36;;;;;;;10.02;6.80;;;;;;;9.70;90.39;99396.00;5589480;31;34047;-70
2022/01/04 10:58:42;;;;;;;13.95;6.72;;;;;;;9.75;90.50;99401.56;5589821;31;35270;-71
2022/01/04 11:01:50;;;;;;;12.00;6.45;;;;;;;9.85;90.41;99387.00;5589984;31;34067;-70
2022/01/04 11:05:17;;;;;;;13.00;6.82;;;;;;;9.90;90.74;99378.50;5589855;31;34155;-70
2022/01/04 11:08:20;;;;;;;12.23;6.70;;;;;;;9.85;90.67;99365.00;5590212;31;33995;-70
2022/01/04 11:11:23;;;;;;;13.35;7.07;;;;;;;9.85;90.87;99365.00;5589975;31;34066;-71
2022/01/04 11:14:26;;;;;;;12.82;6.65;;;;;;;9.64;92.72;99357.84;5589891;31;34341;-71
2022/01/04 11:17:29;;;;;;;9.90;6.15;;;;;;;9.79;91.86;99353.31;5589943;31;33931;-71
2022/01/04 11:20:33;;;;;;;12.35;5.78;;;;;;;9.64;93.50;99352.53;5589749;31;33878;-71
2022/01/04 11:23:36;;;;;;;8.95;5.10;;;;;;;9.70;93.93;99337.72;5588857;31;34782;-71
2022/01/04 11:26:41;;;;;;;8.60;5.05;;;;;;;9.82;93.34;99338.91;5588581;31;33945;-70
2022/01/04 11:29:47;;;;;;;8.85;4.90;;;;;;;9.93;92.97;99320.66;5589577;31;34681;-71
2022/01/04 11:32:59;;;;;;;6.87;4.28;;;;;;;9.82;93.93;99317.72;5589818;31;35134;-71
2022/01/04 11:36:01;;;;;;;6.05;3.80;;;;;;;10.04;92.95;99303.44;5589840;31;34624;-71
2022/01/04 11:39:35;;;;;;;7.85;4.20;;;;;;;9.89;94.17;99310.62;5589688;31;34050;-71
2022/01/04 11:42:38;;;;;;;5.97;3.90;;;;;;;9.74;95.11;99315.16;5576982;31;34084;-70
2022/01/04 11:45:48;;;;;;;9.07;4.10;;;;;;;9.86;94.80;99298.59;5589545;31;34115;-69
2022/01/04 11:49:07;;;;;;;6.30;4.00;;;;;;;9.86;94.90;99290.66;5589893;31;34313;-69
2022/01/04 11:52:55;;;;;;;7.75;4.15;;;;;;;9.87;95.61;99281.69;5589600;31;34586;-69
2022/01/04 11:56:03;;;;;;;6.47;3.70;;;;;;;10.00;95.13;99294.22;5586897;31;34388;-69
2022/01/04 11:59:18;;;;;;;6.97;4.10;;;;;;;10.03;94.46;99289.34;5589593;31;34124;-69
2022/01/04 12:02:32;;;;;;;8.57;3.70;;;;;;;10.18;93.71;99273.41;5589646;31;33987;-69
2022/01/04 12:05:39;;;;;;;6.18;3.70;;;;;;;10.16;93.52;99293.19;5589845;31;34773;-69
2022/01/04 12:08:49;;;;;;;13.52;4.03;;;;;;;10.21;92.41;99280.19;5588501;31;34055;-69
2022/01/04 12:11:52;;;;;;;8.30;3.70;;;;;;;10.12;93.83;99291.91;5589101;31;34053;-70
2022/01/04 12:15:33;;;;;;;7.07;3.67;;;;;;;10.02;93.48;99285.06;5589448;31;34589;-70
2022/01/04 12:18:36;;;;;;;7.35;3.60;;;;;;;10.20;92.68;99273.22;5589105;31;34151;-69
2022/01/04 12:22:00;;;;;;;6.68;3.75;;;;;;;10.22;92.63;99282.59;5589374;31;34638;-69
2022/01/04 12:25:08;;;;;;;9.18;3.33;;;;;;;10.24;92.58;99279.78;5589450;31;34324;-69
2022/01/04 12:28:14;;;;;;;5.82;3.70;;;;;;;10.23;93.28;99281.59;5589076;31;33926;-69
2022/01/04 12:31:20;;;;;;;8.00;3.87;;;;;;;10.12;93.44;99276.00;5589599;31;33962;-69
2022/01/04 12:34:32;;;;;;;5.93;3.80;;;;;;;10.28;93.03;99268.59;5588214;31;33897;-69
2022/01/04 12:37:36;;;;;;;6.60;3.92;;;;;;;10.14;94.06;99268.66;5588941;31;33945;-70
2022/01/04 12:40:38;;;;;;;10.23;3.92;;;;;;;10.21;92.94;99253.66;5588930;31;34490;-69
2022/01/04 12:43:46;;;;;;;7.15;4.20;;;;;;;10.20;93.79;99252.84;5588610;31;32647;-70
2022/01/04 12:46:49;;;;;;;9.68;3.92;;;;;;;10.33;92.84;99254.75;5588971;31;35157;-70
2022/01/04 12:49:53;;;;;;;8.35;3.78;;;;;;;10.36;93.00;99239.28;5587344;31;34207;-70
2022/01/04 12:52:56;;;;;;;11.52;3.97;;;;;;;10.56;91.65;99243.88;5588310;31;34332;-70
2022/01/04 12:56:02;;;;;;;7.93;3.92;;;;;;;10.55;91.59;99248.41;5588733;31;33949;-70
2022/01/04 12:59:05;;;;;;;6.43;3.72;;;;;;;10.66;91.37;99237.22;5588766;31;34581;-69
2022/01/04 13:02:12;;;;;;;8.02;4.32;;;;;;;10.72;91.28;99225.00;5588789;31;34545;-69
2022/01/04 13:05:18;;;;;;;7.80;4.20;;;;;;;10.79;90.31;99204.66;5588504;31;34221;-70
2022/01/04 13:08:27;;;;;;;7.03;3.72;;;;;;;10.85;90.19;99196.69;5587396;31;33907;-69
2022/01/04 13:11:29;;;;;;;7.70;4.15;;;;;;;10.79;89.74;99178.94;5588401;31;34650;-70
2022/01/04 13:14:34;;;;;;;7.20;4.07;;;;;;;10.84;89.18;99187.09;5588392;31;34070;-69
2022/01/04 13:17:43;;;;;;;8.75;4.00;;;;;;;10.66;90.63;99191.31;5589562;31;34047;-70
2022/01/04 13:20:45;;;;;;;7.82;4.07;;;;;;;10.74;89.53;99170.75;5590064;31;34868;-70
2022/01/04 13:23:48;;;;;;;5.35;3.62;;;;;;;10.68;90.37;99160.94;5590065;31;34632;-71
2022/01/04 13:26:51;;;;;;;9.95;3.78;;;;;;;10.66;91.30;99172.75;5590916;31;33993;-70
2022/01/04 13:30:03;;;;;;;9.73;4.53;;;;;;;10.72;90.41;99166.66;5590114;31;34061;-70
2022/01/04 13:33:10;;;;;;;6.90;3.78;;;;;;;10.63;90.93;99176.63;5590727;31;34461;-70
2022/01/04 13:36:12;;;;;;;7.85;3.80;;;;;;;10.78;89.63;99176.47;5577501;31;34007;-70
2022/01/04 13:39:16;;;;;;;12.43;3.95;;;;;;;10.82;89.83;99167.94;5589970;31;34681;-70
2022/01/04 13:42:36;;;;;;;6.78;4.18;;;;;;;10.83;89.32;99163.44;5589996;31;33889;-71
2022/01/04 13:45:51;;;;;;;7.65;4.37;;;;;;;10.91;88.70;99168.56;5590698;31;34855;-70
2022/01/04 13:48:54;;;;;;;8.43;4.57;;;;;;;10.88;89.15;99161.84;5591624;31;34608;-70
2022/01/04 13:52:14;;;;;;;8.18;4.22;;;;;;;10.82;90.79;99157.31;5590941;31;34681;-70
2022/01/04 13:55:17;;;;;;;9.43;3.85;;;;;;;10.90;89.89;99172.22;5591000;31;34628;-69
2022/01/04 13:58:32;;;;;;;9.40;4.03;;;;;;;10.94;88.77;99172.66;5589705;31;34129;-69
2022/01/04 14:01:43;;;;;;;7.05;4.47;;;;;;;10.87;89.51;99156.72;5590349;31;33871;-69
2022/01/04 14:05:15;;;;;;;8.77;4.40;;;;;;;10.80;90.93;99150.56;5590586;31;34545;-69
2022/01/04 14:08:17;;;;;;;8.55;4.25;;;;;;;10.82;90.36;99149.34;5590689;31;34631;-69
2022/01/04 14:11:25;;;;;;;7.55;3.87;;;;;;;10.75;91.11;99132.59;5590466;31;34026;-69
2022/01/04 14:14:31;;;;;;;6.12;3.87;;;;;;;10.78;90.85;99126.06;5590441;31;35213;-69
2022/01/04 14:17:35;;;;;;;9.23;4.30;;;;;;;10.84;90.06;99130.59;5590855;31;34026;-69
2022/01/04 14:20:54;;;;;;;9.48;4.15;;;;;;;10.68;91.69;99131.75;5589490;31;34116;-71
2022/01/04 14:23:57;;;;;;;6.95;4.18;;;;;;;10.71;90.60;99136.66;5590156;31;34092;-70
2022/01/04 14:27:04;;;;;;;8.07;4.18;;;;;;;10.70;91.16;99119.09;5589978;31;34663;-69
2022/01/04 14:30:18;;;;;;;6.75;3.90;;;;;;;10.68;91.42;99126.47;5589254;31;33874;-70
2022/01/04 14:33:21;;;;;;;7.30;4.22;;;;;;;10.68;91.17;99113.19;5590423;31;33966;-69
2022/01/04 14:36:24;;;;;;;8.00;4.03;;;;;;;10.66;91.54;99117.03;5590231;31;33975;-70
2022/01/04 14:39:30;;;;;;;8.07;4.00;;;;;;;10.68;90.86;99110.53;5589976;31;34331;-70